createdAt,value
2018-12-13T00:01:44.322Z,9.33
2018-12-13T00:04:12.851Z,9.10
2018-12-13T00:06:41.394Z,8.93
2018-12-13T00:09:09.926Z,8.80
2018-12-13T00:11:38.477Z,8.57
2018-12-13T00:14:07.030Z,10.37
2018-12-13T00:16:35.549Z,9.10
2018-12-13T00:19:04.213Z,9.83
2018-12-13T00:21:32.726Z,9.03
2018-12-13T00:24:01.290Z,9.70
2018-12-13T00:26:30.095Z,10.73
2018-12-13T00:28:58.630Z,11.17
2018-12-13T00:31:27.205Z,10.30
2018-12-13T00:33:55.862Z,10.30
2018-12-13T00:36:24.405Z,12.53
2018-12-13T00:38:52.954Z,9.07
2018-12-13T00:41:21.477Z,12.17
2018-12-13T00:43:50.035Z,11.30
2018-12-13T00:46:18.577Z,9.63
2018-12-13T00:48:47.101Z,10.80
2018-12-13T00:51:15.609Z,11.13
2018-12-13T00:53:44.154Z,11.33
2018-12-13T00:56:12.698Z,12.37
2018-12-13T00:58:41.230Z,11.97
2018-12-13T01:01:09.831Z,9.93
2018-12-13T01:03:38.382Z,8.97
2018-12-13T01:06:06.927Z,11.63
2018-12-13T01:08:35.494Z,9.53
2018-12-13T01:11:04.039Z,10.50
2018-12-13T01:13:32.613Z,10.43
2018-12-13T01:16:01.164Z,10.60
2018-12-13T01:18:29.698Z,11.83
2018-12-13T01:20:58.354Z,10.63
2018-12-13T01:23:26.878Z,11.17
2018-12-13T01:25:55.416Z,10.47
2018-12-13T01:28:23.930Z,10.90
2018-12-13T01:30:52.495Z,10.83
2018-12-13T01:33:21.031Z,11.63
2018-12-13T01:35:49.546Z,11.23
2018-12-13T01:38:18.066Z,11.53
2018-12-13T01:40:46.600Z,10.43
2018-12-13T01:43:15.159Z,12.07
2018-12-13T01:45:43.706Z,11.27
2018-12-13T01:48:12.341Z,11.23
2018-12-13T01:50:40.870Z,13.43
2018-12-13T01:53:09.434Z,12.90
2018-12-13T01:55:37.982Z,13.67
2018-12-13T01:58:06.910Z,15.37
2018-12-13T02:00:35.494Z,12.97
2018-12-13T02:03:04.168Z,15.00
2018-12-13T02:05:32.694Z,15.17
2018-12-13T02:08:01.244Z,15.30
2018-12-13T02:10:30.185Z,14.60
2018-12-13T02:12:58.726Z,14.00
2018-12-13T02:15:27.984Z,15.53
2018-12-13T02:18:10.333Z,13.83
2018-12-13T02:20:47.852Z,14.23
2018-12-13T02:23:16.434Z,15.40
2018-12-13T02:25:44.979Z,16.37
2018-12-13T02:28:13.509Z,17.70
2018-12-13T02:30:42.066Z,16.47
2018-12-13T02:33:11.055Z,15.40
2018-12-13T02:35:39.613Z,15.00
2018-12-13T02:38:08.145Z,16.57
2018-12-13T02:40:36.715Z,14.10
2018-12-13T02:43:05.304Z,15.27
2018-12-13T02:45:33.852Z,14.03
2018-12-13T02:48:02.389Z,16.20
2018-12-13T02:50:30.933Z,13.93
2018-12-13T02:52:59.459Z,15.07
2018-12-13T02:55:28.005Z,14.30
2018-12-13T02:57:56.559Z,14.37
2018-12-13T03:00:25.434Z,13.73
2018-12-13T03:02:53.982Z,15.30
2018-12-13T03:05:22.495Z,16.27
2018-12-13T03:07:51.054Z,16.60
2018-12-13T03:10:19.587Z,15.17
2018-12-13T03:12:48.485Z,14.97
2018-12-13T03:15:17.030Z,16.33
2018-12-13T03:17:45.562Z,12.73
2018-12-13T03:20:14.250Z,14.20
2018-12-13T03:22:42.765Z,13.70
2018-12-13T03:25:11.335Z,13.00
2018-12-13T03:27:39.878Z,14.93
2018-12-13T03:30:08.733Z,16.67
2018-12-13T03:32:37.338Z,16.97
2018-12-13T03:35:06.176Z,12.50
2018-12-13T03:37:34.746Z,14.73
2018-12-13T03:40:04.028Z,14.83
2018-12-13T03:42:32.591Z,15.10
2018-12-13T03:45:01.125Z,16.20
2018-12-13T03:47:29.649Z,13.77
2018-12-13T03:49:58.199Z,19.40
2018-12-13T03:52:26.757Z,13.87
2018-12-13T03:54:55.302Z,12.47
2018-12-13T03:57:24.062Z,14.00
2018-12-13T03:59:52.599Z,16.73
2018-12-13T04:02:21.130Z,15.17
2018-12-13T04:04:49.693Z,16.20
2018-12-13T04:07:18.246Z,14.30
2018-12-13T04:09:46.792Z,14.70
2018-12-13T04:12:15.357Z,14.67
2018-12-13T04:14:43.909Z,14.50
2018-12-13T04:17:12.438Z,15.70
2018-12-13T04:19:40.977Z,17.73
2018-12-13T04:22:09.551Z,15.43
2018-12-13T04:24:38.089Z,15.17
2018-12-13T04:27:06.605Z,15.83
2018-12-13T04:29:35.138Z,17.70
2018-12-13T04:32:03.663Z,19.80
2018-12-13T04:34:32.202Z,16.47
2018-12-13T04:37:00.738Z,18.23
2018-12-13T04:39:29.590Z,16.50
2018-12-13T04:41:58.120Z,14.90
2018-12-13T04:44:26.658Z,16.20
2018-12-13T04:46:55.190Z,17.53
2018-12-13T04:49:24.071Z,18.20
2018-12-13T04:51:52.625Z,17.90
2018-12-13T04:54:21.166Z,17.30
2018-12-13T04:56:49.715Z,16.43
2018-12-13T04:59:18.251Z,18.80
2018-12-13T05:01:46.805Z,19.20
2018-12-13T05:04:15.341Z,17.43
2018-12-13T05:06:43.900Z,17.00
2018-12-13T05:09:12.454Z,17.63
2018-12-13T05:11:40.979Z,16.73
2018-12-13T05:14:09.550Z,17.80
2018-12-13T05:16:38.091Z,16.40
2018-12-13T05:19:06.622Z,18.87
2018-12-13T05:21:35.210Z,20.97
2018-12-13T05:24:03.887Z,18.10
2018-12-13T05:26:32.428Z,18.70
2018-12-13T05:29:00.978Z,19.00
2018-12-13T05:31:29.526Z,18.23
2018-12-13T05:33:58.082Z,17.27
2018-12-13T05:36:26.643Z,19.77
2018-12-13T05:38:55.214Z,24.23
2018-12-13T05:41:23.774Z,16.83
2018-12-13T05:43:54.309Z,18.60
2018-12-13T05:46:22.918Z,19.57
2018-12-13T05:48:51.610Z,18.57
2018-12-13T05:51:20.142Z,17.70
2018-12-13T05:53:48.669Z,19.17
2018-12-13T05:56:17.220Z,20.47
2018-12-13T05:58:45.777Z,18.50
2018-12-13T06:01:14.313Z,19.83
2018-12-13T06:03:42.865Z,21.37
2018-12-13T06:06:11.422Z,24.07
2018-12-13T06:08:39.969Z,18.27
2018-12-13T06:11:08.517Z,18.57
2018-12-13T06:13:37.078Z,18.87
2018-12-13T06:16:05.610Z,21.23
2018-12-13T06:18:34.146Z,17.47
2018-12-13T06:21:02.685Z,22.23
2018-12-13T06:23:31.222Z,22.63
2018-12-13T06:26:00.068Z,20.03
2018-12-13T06:28:28.602Z,19.83
2018-12-13T06:30:57.451Z,16.83
2018-12-13T06:33:25.994Z,20.33
2018-12-13T06:35:54.566Z,18.80
2018-12-13T06:38:23.106Z,19.67
2018-12-13T06:40:51.657Z,21.13
2018-12-13T06:43:20.187Z,18.47
2018-12-13T06:45:48.722Z,19.40
2018-12-13T06:48:17.242Z,17.37
2018-12-13T06:50:46.015Z,19.03
2018-12-13T06:53:14.566Z,18.87
2018-12-13T06:55:43.099Z,21.30
2018-12-13T06:58:11.637Z,19.53
2018-12-13T07:00:40.254Z,22.40
2018-12-13T07:03:09.091Z,20.27
2018-12-13T07:05:37.634Z,21.37
2018-12-13T07:08:07.922Z,18.73
2018-12-13T07:10:36.650Z,22.40
2018-12-13T07:13:05.188Z,19.77
2018-12-13T07:15:33.711Z,19.17
2018-12-13T07:18:02.243Z,24.07
2018-12-13T07:20:30.767Z,19.57
2018-12-13T07:22:59.315Z,22.33
2018-12-13T07:25:27.833Z,19.77
2018-12-13T07:27:56.366Z,18.80
2018-12-13T07:30:24.894Z,21.33
2018-12-13T07:32:53.433Z,18.40
2018-12-13T07:35:21.963Z,18.80
2018-12-13T07:37:50.830Z,19.70
2018-12-13T07:40:19.396Z,19.93
2018-12-13T07:42:47.945Z,20.27
2018-12-13T07:45:16.487Z,20.30
2018-12-13T07:47:45.041Z,21.57
2018-12-13T07:50:13.576Z,22.13
2018-12-13T07:52:42.141Z,20.63
2018-12-13T07:55:10.786Z,17.37
2018-12-13T07:57:39.358Z,19.40
2018-12-13T08:00:08.370Z,19.97
2018-12-13T08:02:37.389Z,23.70
2018-12-13T08:05:07.090Z,22.87
2018-12-13T08:07:35.626Z,21.73
2018-12-13T08:10:04.461Z,20.17
2018-12-13T08:12:32.999Z,23.13
2018-12-13T08:15:01.547Z,21.07
2018-12-13T08:17:30.195Z,24.30
2018-12-13T08:19:58.782Z,24.97
2018-12-13T08:22:27.394Z,27.87
2018-12-13T08:24:56.015Z,24.93
2018-12-13T08:27:24.606Z,19.50
2018-12-13T08:29:53.208Z,21.27
2018-12-13T08:32:21.829Z,22.23
2018-12-13T08:34:50.458Z,20.47
2018-12-13T08:37:19.414Z,22.87
2018-12-13T08:39:48.030Z,21.30
2018-12-13T08:42:16.651Z,27.87
2018-12-13T08:44:45.258Z,25.93
2018-12-13T08:47:13.850Z,23.70
2018-12-13T08:49:42.455Z,27.47
2018-12-13T08:52:11.046Z,24.40
2018-12-13T08:54:39.690Z,25.23
2018-12-13T08:57:08.270Z,25.50
2018-12-13T08:59:36.858Z,22.87
2018-12-13T09:02:05.641Z,22.67
2018-12-13T09:04:34.278Z,25.57
2018-12-13T09:07:02.875Z,29.97
2018-12-13T09:09:31.467Z,30.03
2018-12-13T09:12:00.052Z,24.60
2018-12-13T09:14:28.662Z,32.27
2018-12-13T09:16:57.299Z,35.53
2018-12-13T09:19:26.154Z,28.90
2018-12-13T09:21:54.774Z,29.57
2018-12-13T09:24:23.397Z,27.13
2018-12-13T09:26:52.010Z,33.67
2018-12-13T09:29:20.602Z,28.37
2018-12-13T09:31:49.234Z,27.67
2018-12-13T09:34:17.850Z,36.87
2018-12-13T09:36:46.478Z,33.23
2018-12-13T09:39:15.086Z,28.10
2018-12-13T09:41:43.677Z,29.30
2018-12-13T09:44:16.673Z,28.30
2018-12-13T09:46:46.762Z,29.70
2018-12-13T09:49:15.357Z,30.97
2018-12-13T09:51:43.959Z,28.57
2018-12-13T09:54:12.573Z,31.63
2018-12-13T09:56:41.193Z,27.87
2018-12-13T09:59:09.771Z,37.47
2018-12-13T10:01:38.371Z,29.47
2018-12-13T10:04:06.980Z,27.43
2018-12-13T10:06:35.635Z,26.10
2018-12-13T10:09:06.634Z,24.20
2018-12-13T10:11:35.506Z,23.20
2018-12-13T10:14:04.190Z,25.10
2018-12-13T10:16:32.843Z,24.60
2018-12-13T10:19:01.453Z,23.53
2018-12-13T10:21:30.035Z,23.20
2018-12-13T10:23:58.634Z,22.30
2018-12-13T10:26:27.257Z,23.83
2018-12-13T10:28:55.845Z,26.83
2018-12-13T10:31:24.671Z,22.47
2018-12-13T10:33:53.637Z,20.17
2018-12-13T10:36:22.371Z,25.27
2018-12-13T10:38:53.158Z,27.40
2018-12-13T10:41:21.588Z,21.77
2018-12-13T10:43:50.198Z,24.43
2018-12-13T10:46:18.793Z,22.53
2018-12-13T10:48:47.405Z,19.97
2018-12-13T10:51:16.021Z,22.63
2018-12-13T10:53:44.626Z,21.63
2018-12-13T10:56:13.231Z,23.73
2018-12-13T10:58:41.846Z,18.27
2018-12-13T11:01:15.755Z,20.70
2018-12-13T11:03:44.373Z,18.33
2018-12-13T11:06:12.982Z,22.10
2018-12-13T11:08:41.666Z,19.43
2018-12-13T11:11:10.271Z,19.97
2018-12-13T11:13:39.008Z,22.27
2018-12-13T11:16:07.634Z,20.80
2018-12-13T11:18:36.257Z,22.40
2018-12-13T11:21:04.884Z,19.13
2018-12-13T11:23:33.533Z,21.20
2018-12-13T11:26:02.104Z,20.63
2018-12-13T11:30:43.090Z,21.00
2018-12-13T11:33:11.802Z,26.83
2018-12-13T11:35:40.416Z,23.33
2018-12-13T11:38:09.001Z,21.50
2018-12-13T11:40:37.851Z,23.33
2018-12-13T11:43:06.494Z,30.57
2018-12-13T11:45:35.156Z,28.37
2018-12-13T11:48:03.800Z,26.30
2018-12-13T11:50:32.522Z,24.60
2018-12-13T11:53:01.118Z,23.73
2018-12-13T11:55:33.699Z,23.40
2018-12-13T11:58:03.006Z,24.53
2018-12-13T12:00:31.608Z,22.27
2018-12-13T12:03:00.218Z,22.53
2018-12-13T12:05:28.836Z,20.20
2018-12-13T12:07:57.421Z,20.87
2018-12-13T12:10:26.066Z,22.90
2018-12-13T12:12:54.667Z,21.50
2018-12-13T12:15:23.292Z,22.77
2018-12-13T12:17:51.910Z,21.80
2018-12-13T12:20:20.504Z,18.27
2018-12-13T12:22:49.101Z,25.80
2018-12-13T12:25:17.706Z,22.13
2018-12-13T12:27:46.306Z,20.77
2018-12-13T12:30:14.928Z,21.00
2018-12-13T12:32:43.571Z,20.27
2018-12-13T12:35:12.289Z,21.00
2018-12-13T12:37:40.904Z,23.27
2018-12-13T12:40:09.970Z,19.63
2018-12-13T12:42:38.819Z,20.33
2018-12-13T12:45:07.899Z,21.23
2018-12-13T12:47:36.511Z,20.77
2018-12-13T12:50:06.865Z,20.93
2018-12-13T12:52:35.484Z,20.63
2018-12-13T12:55:04.368Z,23.63
2018-12-13T12:57:32.995Z,23.87
2018-12-13T13:00:01.584Z,25.67
2018-12-13T13:02:31.232Z,20.07
2018-12-13T13:04:59.827Z,20.70
2018-12-13T13:07:28.462Z,23.20
2018-12-13T13:09:57.046Z,20.20
2018-12-13T13:12:25.587Z,24.23
2018-12-13T13:14:54.205Z,24.20
2018-12-13T13:17:22.810Z,22.20
2018-12-13T13:19:51.410Z,24.77
2018-12-13T13:22:19.982Z,22.87
2018-12-13T13:24:48.681Z,23.20
2018-12-13T13:27:17.425Z,21.00
2018-12-13T13:29:46.066Z,22.30
2018-12-13T13:32:14.679Z,21.77
2018-12-13T13:34:43.326Z,24.23
2018-12-13T13:37:11.922Z,24.37
2018-12-13T13:39:40.525Z,22.90
2018-12-13T13:42:09.117Z,23.67
2018-12-13T13:44:38.921Z,21.57
2018-12-13T13:47:07.651Z,20.53
2018-12-13T13:49:36.259Z,26.60
2018-12-13T13:52:04.904Z,22.00
2018-12-13T13:54:33.516Z,25.60
2018-12-13T13:57:02.127Z,22.90
2018-12-13T13:59:30.731Z,25.70
2018-12-13T14:01:59.324Z,23.13
2018-12-13T14:04:27.924Z,32.60
2018-12-13T14:06:56.516Z,23.07
2018-12-13T14:09:25.138Z,22.80
2018-12-13T14:11:53.725Z,23.33
2018-12-13T14:14:22.351Z,23.63
2018-12-13T14:16:50.971Z,23.47
2018-12-13T14:19:20.660Z,24.93
2018-12-13T14:21:49.433Z,25.40
2018-12-13T14:24:18.053Z,24.10
2018-12-13T14:26:46.676Z,29.27
2018-12-13T14:29:15.291Z,29.53
2018-12-13T14:31:43.914Z,31.67
2018-12-13T14:34:12.513Z,19.10
2018-12-13T14:36:41.119Z,22.93
2018-12-13T14:39:09.747Z,24.23
2018-12-13T14:41:38.396Z,18.20
2018-12-13T14:44:07.123Z,21.23
2018-12-13T14:46:35.810Z,21.57
2018-12-13T14:49:04.567Z,20.67
2018-12-13T14:51:33.181Z,23.13
2018-12-13T14:54:01.835Z,18.57
2018-12-13T14:56:30.470Z,24.73
2018-12-13T14:58:59.071Z,24.83
2018-12-13T15:01:28.561Z,22.33
2018-12-13T15:03:57.154Z,22.97
2018-12-13T15:06:25.901Z,30.57
2018-12-13T15:08:54.754Z,23.43
2018-12-13T15:11:23.346Z,27.30
2018-12-13T15:13:51.939Z,29.10
2018-12-13T15:16:20.556Z,30.37
2018-12-13T15:18:49.232Z,41.07
2018-12-13T15:21:17.834Z,31.10
2018-12-13T15:23:46.450Z,44.00
2018-12-13T15:26:15.046Z,26.50
2018-12-13T15:28:43.698Z,23.43
2018-12-13T15:31:12.317Z,28.87
2018-12-13T15:33:40.921Z,39.13
2018-12-13T15:36:09.541Z,23.93
2018-12-13T15:38:38.148Z,46.47
2018-12-13T15:41:06.734Z,51.30
2018-12-13T15:43:35.346Z,23.77
2018-12-13T15:46:03.945Z,25.10
2018-12-13T15:48:32.540Z,32.03
2018-12-13T15:51:01.142Z,25.87
2018-12-13T15:53:29.980Z,21.90
2018-12-13T15:55:58.606Z,24.17
2018-12-13T15:58:27.206Z,23.67
2018-12-13T16:00:55.818Z,21.63
2018-12-13T16:03:24.421Z,21.50
2018-12-13T16:05:53.022Z,31.57
2018-12-13T16:08:21.736Z,30.90
2018-12-13T16:10:50.325Z,31.20
2018-12-13T16:13:18.946Z,29.37
2018-12-13T16:15:47.559Z,24.87
2018-12-13T16:18:16.162Z,27.60
2018-12-13T16:20:44.787Z,27.03
2018-12-13T16:23:13.394Z,22.50
2018-12-13T16:25:41.973Z,31.73
2018-12-13T16:28:10.584Z,33.53
2018-12-13T16:30:39.171Z,28.83
2018-12-13T16:33:08.150Z,23.13
2018-12-13T16:35:36.746Z,25.73
2018-12-13T16:38:05.366Z,36.10
2018-12-13T16:40:34.115Z,28.20
2018-12-13T16:43:02.730Z,30.87
2018-12-13T16:45:31.304Z,33.10
2018-12-13T16:47:59.895Z,30.77
2018-12-13T16:50:28.517Z,26.03
2018-12-13T16:52:57.124Z,25.73
2018-12-13T16:55:25.754Z,27.07
2018-12-13T16:57:54.370Z,23.93
2018-12-13T17:00:22.961Z,25.50
2018-12-13T17:02:51.558Z,29.13
2018-12-13T17:05:20.201Z,21.17
2018-12-13T17:07:48.814Z,29.00
2018-12-13T17:10:17.406Z,40.20
2018-12-13T17:12:45.997Z,30.33
2018-12-13T17:15:14.678Z,28.53
2018-12-13T17:17:43.263Z,39.93
2018-12-13T17:20:12.001Z,33.30
2018-12-13T17:22:40.619Z,32.10
2018-12-13T17:25:09.219Z,33.10
2018-12-13T17:27:37.818Z,28.77
2018-12-13T17:30:08.075Z,34.50
2018-12-13T17:32:36.674Z,29.57
2018-12-13T17:35:05.510Z,32.90
2018-12-13T17:37:34.136Z,28.27
2018-12-13T17:40:02.766Z,22.13
2018-12-13T17:42:31.366Z,40.87
2018-12-13T17:45:00.068Z,26.70
2018-12-13T17:47:28.670Z,28.47
2018-12-13T17:49:57.280Z,23.87
2018-12-13T17:52:25.910Z,32.63
2018-12-13T17:54:54.512Z,31.10
2018-12-13T17:57:23.085Z,26.87
2018-12-13T17:59:51.733Z,29.20
2018-12-13T18:02:20.371Z,34.33
2018-12-13T18:04:48.983Z,27.63
2018-12-13T18:07:17.582Z,28.63
2018-12-13T18:09:46.183Z,26.07
2018-12-13T18:12:14.782Z,28.23
2018-12-13T18:14:43.387Z,25.67
2018-12-13T18:17:11.999Z,26.87
2018-12-13T18:19:40.606Z,31.43
2018-12-13T18:22:09.190Z,31.83
2018-12-13T18:24:37.814Z,32.80
2018-12-13T18:27:06.454Z,30.20
2018-12-13T18:29:35.034Z,32.77
2018-12-13T18:32:03.835Z,28.07
2018-12-13T18:34:32.438Z,30.53
2018-12-13T18:37:01.041Z,28.83
2018-12-13T18:39:29.662Z,26.83
2018-12-13T18:41:58.357Z,25.87
2018-12-13T18:44:26.974Z,28.90
2018-12-13T18:46:55.660Z,31.67
2018-12-13T18:49:24.270Z,32.70
2018-12-13T18:51:52.884Z,31.37
2018-12-13T18:54:21.482Z,28.63
2018-12-13T18:56:50.126Z,29.57
2018-12-13T18:59:18.722Z,31.00
2018-12-13T19:01:47.325Z,31.50
2018-12-13T19:04:15.909Z,28.63
2018-12-13T19:06:44.546Z,40.47
2018-12-13T19:09:13.162Z,28.90
2018-12-13T19:11:41.791Z,31.07
2018-12-13T19:14:10.432Z,35.17
2018-12-13T19:16:39.053Z,34.57
2018-12-13T19:19:07.768Z,37.00
2018-12-13T19:21:36.394Z,33.03
2018-12-13T19:24:04.995Z,43.33
2018-12-13T19:26:33.877Z,32.10
2018-12-13T19:29:02.480Z,29.00
2018-12-13T19:31:31.106Z,31.60
2018-12-13T19:33:59.685Z,34.27
2018-12-13T19:36:28.312Z,32.67
2018-12-13T19:38:56.901Z,33.77
2018-12-13T19:41:25.498Z,34.97
2018-12-13T19:43:54.087Z,29.63
2018-12-13T19:46:22.685Z,32.47
2018-12-13T19:48:51.295Z,54.07
2018-12-13T19:51:19.925Z,76.70
2018-12-13T19:53:48.615Z,39.03
2018-12-13T19:56:17.222Z,36.77
2018-12-13T19:58:45.857Z,35.83
2018-12-13T20:01:14.483Z,35.43
2018-12-13T20:03:43.084Z,39.97
2018-12-13T20:06:11.707Z,34.20
2018-12-13T20:08:40.354Z,30.40
2018-12-13T20:11:08.969Z,33.70
2018-12-13T20:13:37.559Z,33.03
2018-12-13T20:16:06.201Z,31.77
2018-12-13T20:18:34.842Z,32.97
2018-12-13T20:21:03.459Z,35.70
2018-12-13T20:23:32.082Z,33.63
2018-12-13T20:26:00.691Z,38.67
2018-12-13T20:28:29.382Z,37.53
2018-12-13T20:30:58.057Z,35.93
2018-12-13T20:33:26.778Z,37.23
2018-12-13T20:35:55.413Z,39.80
2018-12-13T20:38:24.029Z,39.00
2018-12-13T20:40:52.655Z,30.80
2018-12-13T20:43:21.282Z,37.87
2018-12-13T20:45:49.895Z,40.27
2018-12-13T20:48:18.534Z,31.10
2018-12-13T20:50:47.173Z,28.57
2018-12-13T20:53:15.766Z,39.33
2018-12-13T20:55:44.407Z,31.17
2018-12-13T20:58:13.054Z,68.60
2018-12-13T21:00:41.675Z,33.20
2018-12-13T21:03:10.286Z,66.33
2018-12-13T21:05:38.898Z,39.17
2018-12-13T21:08:09.870Z,33.57
2018-12-13T21:10:39.421Z,30.60
2018-12-13T21:13:08.054Z,32.87
2018-12-13T21:15:36.656Z,40.73
2018-12-13T21:18:05.321Z,33.57
2018-12-13T21:20:33.945Z,37.17
2018-12-13T21:23:02.538Z,40.07
2018-12-13T21:25:31.141Z,34.90
2018-12-13T21:27:59.752Z,29.30
2018-12-13T21:30:28.375Z,38.07
2018-12-13T21:32:56.965Z,35.33
2018-12-13T21:35:25.590Z,40.03
2018-12-13T21:37:54.209Z,35.27
2018-12-13T21:40:22.823Z,32.70
2018-12-13T21:42:51.691Z,30.77
2018-12-13T21:45:20.327Z,32.80
2018-12-13T21:47:48.914Z,32.53
2018-12-13T21:50:17.534Z,32.90
2018-12-13T21:52:46.156Z,29.23
2018-12-13T21:55:14.769Z,31.63
2018-12-13T21:57:43.424Z,32.50
2018-12-13T22:00:12.419Z,33.80
2018-12-13T22:02:41.005Z,35.73
2018-12-13T22:05:09.590Z,38.20
2018-12-13T22:07:38.210Z,29.30
2018-12-13T22:10:07.570Z,27.57
2018-12-13T22:12:36.221Z,29.40
2018-12-13T22:15:05.453Z,29.60
2018-12-13T22:17:34.047Z,27.57
2018-12-13T22:20:02.626Z,29.20
2018-12-13T22:22:31.498Z,26.37
2018-12-13T22:25:00.110Z,30.07
2018-12-13T22:27:28.684Z,34.83
2018-12-13T22:29:57.274Z,30.57
2018-12-13T22:32:25.878Z,30.57
2018-12-13T22:34:54.626Z,29.70
2018-12-13T22:37:23.228Z,31.33
2018-12-13T22:39:51.834Z,33.37
2018-12-13T22:42:20.443Z,32.43
2018-12-13T22:44:49.030Z,27.67
2018-12-13T22:47:18.586Z,32.80
2018-12-13T22:49:47.206Z,27.77
2018-12-13T22:52:15.825Z,27.87
2018-12-13T22:54:44.614Z,28.47
2018-12-13T22:57:13.225Z,28.83
2018-12-13T22:59:41.757Z,26.27
2018-12-13T23:02:10.600Z,26.47
2018-12-13T23:04:39.163Z,28.07
2018-12-13T23:07:07.707Z,34.50
2018-12-13T23:09:36.230Z,31.63
2018-12-13T23:12:04.778Z,28.47
2018-12-13T23:14:33.422Z,28.23
2018-12-13T23:17:02.222Z,50.17
2018-12-13T23:19:30.781Z,27.77
2018-12-13T23:21:59.321Z,30.87
2018-12-13T23:24:27.882Z,26.50
2018-12-13T23:26:56.422Z,24.37
2018-12-13T23:29:24.963Z,26.13
2018-12-13T23:31:53.513Z,25.20
2018-12-13T23:34:22.047Z,26.47
2018-12-13T23:36:50.620Z,28.07
2018-12-13T23:39:19.511Z,26.27
2018-12-13T23:41:48.050Z,27.43
2018-12-13T23:44:16.589Z,30.00
2018-12-13T23:46:45.147Z,30.30
2018-12-13T23:49:13.676Z,34.30
2018-12-13T23:51:42.503Z,30.67
2018-12-13T23:54:11.035Z,32.43
2018-12-13T23:56:39.590Z,26.60
2018-12-13T23:59:08.241Z,27.17
